sensor_id;sensor_type;location;lat;lon;timestamp;P1;durP1;ratioP1;P2;durP2;ratioP2
32198;SDS011;19221;42.656;21.156;2023-04-25T00:00:53;2.53;;;1.40;;
32198;SDS011;19221;42.656;21.156;2023-04-25T00:03:19;6.90;;;2.15;;
32198;SDS011;19221;42.656;21.156;2023-04-25T00:05:46;5.45;;;2.13;;
32198;SDS011;19221;42.656;21.156;2023-04-25T00:08:12;4.03;;;2.08;;
32198;SDS011;19221;42.656;21.156;2023-04-25T00:10:37;6.50;;;1.83;;
32198;SDS011;19221;42.656;21.156;2023-04-25T00:13:03;4.40;;;1.88;;
32198;SDS011;19221;42.656;21.156;2023-04-25T00:15:29;3.20;;;1.80;;
32198;SDS011;19221;42.656;21.156;2023-04-25T00:17:57;2.67;;;2.00;;
32198;SDS011;19221;42.656;21.156;2023-04-25T00:20:23;1.92;;;1.35;;
32198;SDS011;19221;42.656;21.156;2023-04-25T00:22:50;9.65;;;2.72;;
32198;SDS011;19221;42.656;21.156;2023-04-25T00:25:16;2.08;;;1.40;;
32198;SDS011;19221;42.656;21.156;2023-04-25T00:27:42;6.85;;;1.88;;
32198;SDS011;19221;42.656;21.156;2023-04-25T00:30:07;1.77;;;1.25;;
32198;SDS011;19221;42.656;21.156;2023-04-25T00:32:33;3.25;;;1.80;;
32198;SDS011;19221;42.656;21.156;2023-04-25T00:34:59;9.73;;;2.22;;
32198;SDS011;19221;42.656;21.156;2023-04-25T00:37:24;7.18;;;2.38;;
32198;SDS011;19221;42.656;21.156;2023-04-25T00:39:50;3.65;;;2.47;;
32198;SDS011;19221;42.656;21.156;2023-04-25T00:42:16;2.40;;;1.50;;
32198;SDS011;19221;42.656;21.156;2023-04-25T00:44:42;5.80;;;2.10;;
32198;SDS011;19221;42.656;21.156;2023-04-25T00:47:08;4.78;;;1.80;;
32198;SDS011;19221;42.656;21.156;2023-04-25T00:49:36;4.75;;;2.22;;
32198;SDS011;19221;42.656;21.156;2023-04-25T00:52:01;5.22;;;2.40;;
32198;SDS011;19221;42.656;21.156;2023-04-25T00:54:27;7.05;;;2.20;;
32198;SDS011;19221;42.656;21.156;2023-04-25T00:56:53;4.05;;;2.20;;
32198;SDS011;19221;42.656;21.156;2023-04-25T00:59:19;3.63;;;1.90;;
32198;SDS011;19221;42.656;21.156;2023-04-25T01:01:45;2.60;;;1.70;;
32198;SDS011;19221;42.656;21.156;2023-04-25T01:04:11;4.07;;;1.58;;
32198;SDS011;19221;42.656;21.156;2023-04-25T01:06:36;2.78;;;1.02;;
32198;SDS011;19221;42.656;21.156;2023-04-25T01:09:02;1.30;;;1.00;;
32198;SDS011;19221;42.656;21.156;2023-04-25T01:11:28;2.35;;;1.52;;
32198;SDS011;19221;42.656;21.156;2023-04-25T01:13:53;2.10;;;1.50;;
32198;SDS011;19221;42.656;21.156;2023-04-25T01:16:19;2.17;;;1.27;;
32198;SDS011;19221;42.656;21.156;2023-04-25T01:18:45;3.00;;;1.38;;
32198;SDS011;19221;42.656;21.156;2023-04-25T01:21:11;4.55;;;1.50;;
32198;SDS011;19221;42.656;21.156;2023-04-25T01:23:38;2.63;;;1.90;;
32198;SDS011;19221;42.656;21.156;2023-04-25T01:26:05;6.00;;;2.00;;
32198;SDS011;19221;42.656;21.156;2023-04-25T01:28:31;6.05;;;2.03;;
32198;SDS011;19221;42.656;21.156;2023-04-25T01:30:58;3.13;;;2.13;;
32198;SDS011;19221;42.656;21.156;2023-04-25T01:33:24;4.20;;;1.50;;
32198;SDS011;19221;42.656;21.156;2023-04-25T01:35:50;2.80;;;1.40;;
32198;SDS011;19221;42.656;21.156;2023-04-25T01:38:15;3.60;;;1.70;;
32198;SDS011;19221;42.656;21.156;2023-04-25T01:40:41;6.32;;;1.77;;
32198;SDS011;19221;42.656;21.156;2023-04-25T01:43:10;5.57;;;2.00;;
32198;SDS011;19221;42.656;21.156;2023-04-25T01:45:38;2.92;;;1.50;;
32198;SDS011;19221;42.656;21.156;2023-04-25T01:48:09;2.40;;;1.13;;
32198;SDS011;19221;42.656;21.156;2023-04-25T01:50:35;4.93;;;1.80;;
32198;SDS011;19221;42.656;21.156;2023-04-25T01:53:01;1.60;;;1.20;;
32198;SDS011;19221;42.656;21.156;2023-04-25T01:55:27;3.97;;;1.50;;
32198;SDS011;19221;42.656;21.156;2023-04-25T01:57:53;2.03;;;1.00;;
32198;SDS011;19221;42.656;21.156;2023-04-25T02:00:19;2.78;;;1.17;;
32198;SDS011;19221;42.656;21.156;2023-04-25T02:02:46;2.63;;;1.08;;
32198;SDS011;19221;42.656;21.156;2023-04-25T02:05:11;1.17;;;0.80;;
32198;SDS011;19221;42.656;21.156;2023-04-25T02:07:37;1.52;;;0.80;;
32198;SDS011;19221;42.656;21.156;2023-04-25T02:10:03;1.00;;;0.80;;
32198;SDS011;19221;42.656;21.156;2023-04-25T02:12:29;1.13;;;0.77;;
32198;SDS011;19221;42.656;21.156;2023-04-25T02:14:55;0.90;;;0.70;;
32198;SDS011;19221;42.656;21.156;2023-04-25T02:17:20;1.00;;;0.90;;
32198;SDS011;19221;42.656;21.156;2023-04-25T02:19:47;0.95;;;0.80;;
32198;SDS011;19221;42.656;21.156;2023-04-25T02:22:13;0.85;;;0.70;;
32198;SDS011;19221;42.656;21.156;2023-04-25T02:24:38;1.48;;;0.63;;
32198;SDS011;19221;42.656;21.156;2023-04-25T02:27:04;0.75;;;0.70;;
32198;SDS011;19221;42.656;21.156;2023-04-25T02:29:30;2.20;;;0.70;;
32198;SDS011;19221;42.656;21.156;2023-04-25T02:31:55;1.13;;;0.70;;
32198;SDS011;19221;42.656;21.156;2023-04-25T02:34:21;1.65;;;1.00;;
32198;SDS011;19221;42.656;21.156;2023-04-25T02:36:50;0.90;;;0.73;;
32198;SDS011;19221;42.656;21.156;2023-04-25T02:39:18;3.53;;;0.82;;
32198;SDS011;19221;42.656;21.156;2023-04-25T02:41:44;0.70;;;0.70;;
32198;SDS011;19221;42.656;21.156;2023-04-25T02:44:10;2.97;;;1.08;;
32198;SDS011;19221;42.656;21.156;2023-04-25T02:46:35;0.80;;;0.60;;
32198;SDS011;19221;42.656;21.156;2023-04-25T02:49:01;1.52;;;0.88;;
32198;SDS011;19221;42.656;21.156;2023-04-25T02:51:26;2.53;;;1.08;;
32198;SDS011;19221;42.656;21.156;2023-04-25T02:53:52;2.45;;;1.10;;
32198;SDS011;19221;42.656;21.156;2023-04-25T02:56:18;1.52;;;0.80;;
32198;SDS011;19221;42.656;21.156;2023-04-25T02:58:44;1.25;;;0.73;;
32198;SDS011;19221;42.656;21.156;2023-04-25T03:01:10;1.80;;;1.00;;
32198;SDS011;19221;42.656;21.156;2023-04-25T03:03:36;3.67;;;1.58;;
32198;SDS011;19221;42.656;21.156;2023-04-25T03:06:01;2.50;;;1.30;;
32198;SDS011;19221;42.656;21.156;2023-04-25T03:08:27;1.92;;;1.20;;
32198;SDS011;19221;42.656;21.156;2023-04-25T03:10:58;1.63;;;1.27;;
32198;SDS011;19221;42.656;21.156;2023-04-25T03:13:24;3.70;;;1.83;;
32198;SDS011;19221;42.656;21.156;2023-04-25T03:15:49;1.80;;;1.35;;
32198;SDS011;19221;42.656;21.156;2023-04-25T03:18:15;3.05;;;1.00;;
32198;SDS011;19221;42.656;21.156;2023-04-25T03:20:41;1.30;;;0.90;;
32198;SDS011;19221;42.656;21.156;2023-04-25T03:23:07;1.08;;;0.93;;
32198;SDS011;19221;42.656;21.156;2023-04-25T03:25:32;1.55;;;1.00;;
32198;SDS011;19221;42.656;21.156;2023-04-25T03:27:58;2.05;;;1.27;;
32198;SDS011;19221;42.656;21.156;2023-04-25T03:30:24;3.67;;;1.10;;
32198;SDS011;19221;42.656;21.156;2023-04-25T03:32:49;3.85;;;1.15;;
32198;SDS011;19221;42.656;21.156;2023-04-25T03:35:15;3.35;;;1.80;;
32198;SDS011;19221;42.656;21.156;2023-04-25T03:37:41;2.50;;;1.48;;
32198;SDS011;19221;42.656;21.156;2023-04-25T03:40:10;2.28;;;1.30;;
32198;SDS011;19221;42.656;21.156;2023-04-25T03:42:37;1.10;;;1.00;;
32198;SDS011;19221;42.656;21.156;2023-04-25T03:45:03;1.67;;;1.25;;
32198;SDS011;19221;42.656;21.156;2023-04-25T03:47:29;1.85;;;0.90;;
32198;SDS011;19221;42.656;21.156;2023-04-25T03:49:54;5.85;;;1.63;;
32198;SDS011;19221;42.656;21.156;2023-04-25T03:52:20;3.95;;;1.38;;
32198;SDS011;19221;42.656;21.156;2023-04-25T03:54:46;2.25;;;1.23;;
32198;SDS011;19221;42.656;21.156;2023-04-25T03:57:11;6.68;;;1.50;;
32198;SDS011;19221;42.656;21.156;2023-04-25T03:59:37;1.13;;;0.90;;
32198;SDS011;19221;42.656;21.156;2023-04-25T04:02:03;6.63;;;1.00;;
32198;SDS011;19221;42.656;21.156;2023-04-25T04:04:28;3.08;;;1.00;;
32198;SDS011;19221;42.656;21.156;2023-04-25T04:06:55;5.00;;;1.52;;
32198;SDS011;19221;42.656;21.156;2023-04-25T04:09:21;2.15;;;1.40;;
32198;SDS011;19221;42.656;21.156;2023-04-25T04:11:46;2.53;;;1.00;;
32198;SDS011;19221;42.656;21.156;2023-04-25T04:14:12;4.53;;;1.50;;
32198;SDS011;19221;42.656;21.156;2023-04-25T04:16:37;6.70;;;1.52;;
32198;SDS011;19221;42.656;21.156;2023-04-25T04:19:03;3.67;;;1.40;;
32198;SDS011;19221;42.656;21.156;2023-04-25T04:21:29;7.40;;;1.88;;
32198;SDS011;19221;42.656;21.156;2023-04-25T04:23:55;5.05;;;1.88;;
32198;SDS011;19221;42.656;21.156;2023-04-25T04:26:23;5.10;;;1.77;;
32198;SDS011;19221;42.656;21.156;2023-04-25T04:28:52;4.63;;;2.42;;
32198;SDS011;19221;42.656;21.156;2023-04-25T04:31:20;6.17;;;2.40;;
32198;SDS011;19221;42.656;21.156;2023-04-25T04:33:45;8.38;;;2.17;;
32198;SDS011;19221;42.656;21.156;2023-04-25T04:36:11;7.43;;;1.80;;
32198;SDS011;19221;42.656;21.156;2023-04-25T04:38:37;3.90;;;1.70;;
32198;SDS011;19221;42.656;21.156;2023-04-25T04:41:03;6.93;;;1.60;;
32198;SDS011;19221;42.656;21.156;2023-04-25T04:43:28;5.20;;;1.30;;
32198;SDS011;19221;42.656;21.156;2023-04-25T04:45:55;1.92;;;1.30;;
32198;SDS011;19221;42.656;21.156;2023-04-25T04:48:21;4.32;;;1.60;;
32198;SDS011;19221;42.656;21.156;2023-04-25T04:50:47;6.40;;;1.60;;
32198;SDS011;19221;42.656;21.156;2023-04-25T04:53:13;8.82;;;2.03;;
32198;SDS011;19221;42.656;21.156;2023-04-25T04:55:39;17.65;;;2.67;;
32198;SDS011;19221;42.656;21.156;2023-04-25T04:58:06;8.95;;;3.55;;
32198;SDS011;19221;42.656;21.156;2023-04-25T05:00:32;15.48;;;3.00;;
32198;SDS011;19221;42.656;21.156;2023-04-25T05:02:58;7.60;;;2.25;;
32198;SDS011;19221;42.656;21.156;2023-04-25T05:05:24;6.05;;;1.83;;
32198;SDS011;19221;42.656;21.156;2023-04-25T05:07:50;10.80;;;2.15;;
32198;SDS011;19221;42.656;21.156;2023-04-25T05:10:16;15.95;;;1.90;;
32198;SDS011;19221;42.656;21.156;2023-04-25T05:12:42;6.32;;;1.77;;
32198;SDS011;19221;42.656;21.156;2023-04-25T05:15:08;5.38;;;1.88;;
32198;SDS011;19221;42.656;21.156;2023-04-25T05:17:34;7.25;;;1.92;;
32198;SDS011;19221;42.656;21.156;2023-04-25T05:19:59;5.90;;;1.50;;
32198;SDS011;19221;42.656;21.156;2023-04-25T05:22:25;4.97;;;1.60;;
32198;SDS011;19221;42.656;21.156;2023-04-25T05:24:51;5.32;;;1.90;;
32198;SDS011;19221;42.656;21.156;2023-04-25T05:27:17;3.65;;;1.55;;
32198;SDS011;19221;42.656;21.156;2023-04-25T05:29:43;14.23;;;2.55;;
32198;SDS011;19221;42.656;21.156;2023-04-25T05:32:09;7.72;;;2.30;;
32198;SDS011;19221;42.656;21.156;2023-04-25T05:34:35;7.80;;;2.40;;
32198;SDS011;19221;42.656;21.156;2023-04-25T05:37:01;4.90;;;1.70;;
32198;SDS011;19221;42.656;21.156;2023-04-25T05:39:26;4.50;;;1.58;;
32198;SDS011;19221;42.656;21.156;2023-04-25T05:41:52;5.28;;;1.73;;
32198;SDS011;19221;42.656;21.156;2023-04-25T05:44:18;5.25;;;1.98;;
32198;SDS011;19221;42.656;21.156;2023-04-25T05:46:43;7.72;;;1.90;;
32198;SDS011;19221;42.656;21.156;2023-04-25T05:49:10;5.47;;;1.60;;
32198;SDS011;19221;42.656;21.156;2023-04-25T05:51:36;2.80;;;1.67;;
32198;SDS011;19221;42.656;21.156;2023-04-25T05:54:01;3.33;;;1.52;;
32198;SDS011;19221;42.656;21.156;2023-04-25T05:56:27;2.33;;;1.33;;
32198;SDS011;19221;42.656;21.156;2023-04-25T05:58:53;6.10;;;1.75;;
32198;SDS011;19221;42.656;21.156;2023-04-25T06:01:18;6.18;;;1.90;;
32198;SDS011;19221;42.656;21.156;2023-04-25T06:03:44;5.72;;;1.70;;
32198;SDS011;19221;42.656;21.156;2023-04-25T06:06:11;4.28;;;1.50;;
32198;SDS011;19221;42.656;21.156;2023-04-25T06:08:36;6.85;;;2.10;;
32198;SDS011;19221;42.656;21.156;2023-04-25T06:11:03;5.45;;;1.67;;
32198;SDS011;19221;42.656;21.156;2023-04-25T06:13:29;9.95;;;2.25;;
32198;SDS011;19221;42.656;21.156;2023-04-25T06:15:56;7.88;;;1.85;;
32198;SDS011;19221;42.656;21.156;2023-04-25T06:18:22;9.90;;;2.10;;
32198;SDS011;19221;42.656;21.156;2023-04-25T06:20:48;5.93;;;2.20;;
32198;SDS011;19221;42.656;21.156;2023-04-25T06:23:13;8.30;;;2.17;;
32198;SDS011;19221;42.656;21.156;2023-04-25T06:25:39;12.48;;;2.35;;
32198;SDS011;19221;42.656;21.156;2023-04-25T06:28:05;5.53;;;2.30;;
32198;SDS011;19221;42.656;21.156;2023-04-25T06:30:30;5.13;;;2.10;;
32198;SDS011;19221;42.656;21.156;2023-04-25T06:32:56;6.28;;;2.28;;
32198;SDS011;19221;42.656;21.156;2023-04-25T06:35:22;8.93;;;1.90;;
32198;SDS011;19221;42.656;21.156;2023-04-25T06:37:47;6.53;;;2.38;;
32198;SDS011;19221;42.656;21.156;2023-04-25T06:40:13;10.10;;;2.33;;
32198;SDS011;19221;42.656;21.156;2023-04-25T06:42:38;8.20;;;2.47;;
32198;SDS011;19221;42.656;21.156;2023-04-25T06:45:04;7.68;;;3.08;;
32198;SDS011;19221;42.656;21.156;2023-04-25T06:47:30;5.35;;;2.20;;
32198;SDS011;19221;42.656;21.156;2023-04-25T06:49:56;5.00;;;1.95;;
32198;SDS011;19221;42.656;21.156;2023-04-25T06:52:21;5.45;;;2.33;;
32198;SDS011;19221;42.656;21.156;2023-04-25T06:54:47;10.30;;;2.63;;
32198;SDS011;19221;42.656;21.156;2023-04-25T06:57:12;8.00;;;3.00;;
32198;SDS011;19221;42.656;21.156;2023-04-25T06:59:38;5.57;;;2.35;;
32198;SDS011;19221;42.656;21.156;2023-04-25T07:02:04;5.82;;;2.45;;
32198;SDS011;19221;42.656;21.156;2023-04-25T07:04:31;10.45;;;2.65;;
32198;SDS011;19221;42.656;21.156;2023-04-25T07:06:57;7.30;;;2.90;;
32198;SDS011;19221;42.656;21.156;2023-04-25T07:09:22;4.15;;;2.28;;
32198;SDS011;19221;42.656;21.156;2023-04-25T07:11:48;8.13;;;2.63;;
32198;SDS011;19221;42.656;21.156;2023-04-25T07:14:14;8.60;;;2.90;;
32198;SDS011;19221;42.656;21.156;2023-04-25T07:16:40;9.13;;;2.55;;
32198;SDS011;19221;42.656;21.156;2023-04-25T07:19:06;8.82;;;3.10;;
32198;SDS011;19221;42.656;21.156;2023-04-25T07:21:31;11.15;;;3.28;;
32198;SDS011;19221;42.656;21.156;2023-04-25T07:23:58;8.65;;;3.28;;
32198;SDS011;19221;42.656;21.156;2023-04-25T07:26:23;10.40;;;2.92;;
32198;SDS011;19221;42.656;21.156;2023-04-25T07:28:49;6.22;;;2.83;;
32198;SDS011;19221;42.656;21.156;2023-04-25T07:31:17;8.38;;;3.10;;
32198;SDS011;19221;42.656;21.156;2023-04-25T07:33:44;10.60;;;2.92;;
32198;SDS011;19221;42.656;21.156;2023-04-25T07:36:10;5.80;;;2.60;;
32198;SDS011;19221;42.656;21.156;2023-04-25T07:38:36;11.75;;;3.80;;
32198;SDS011;19221;42.656;21.156;2023-04-25T07:41:01;8.60;;;3.00;;
32198;SDS011;19221;42.656;21.156;2023-04-25T07:43:27;7.93;;;3.10;;
32198;SDS011;19221;42.656;21.156;2023-04-25T07:45:53;10.40;;;3.15;;
32198;SDS011;19221;42.656;21.156;2023-04-25T07:48:18;12.05;;;3.20;;
32198;SDS011;19221;42.656;21.156;2023-04-25T07:50:44;18.60;;;5.60;;
32198;SDS011;19221;42.656;21.156;2023-04-25T07:53:10;14.45;;;7.50;;
32198;SDS011;19221;42.656;21.156;2023-04-25T07:55:36;5.78;;;3.25;;
32198;SDS011;19221;42.656;21.156;2023-04-25T07:58:08;18.65;;;4.38;;
32198;SDS011;19221;42.656;21.156;2023-04-25T08:00:34;8.52;;;3.13;;
32198;SDS011;19221;42.656;21.156;2023-04-25T08:03:00;8.60;;;3.10;;
32198;SDS011;19221;42.656;21.156;2023-04-25T08:05:25;10.07;;;3.00;;
32198;SDS011;19221;42.656;21.156;2023-04-25T08:07:51;8.23;;;2.30;;
32198;SDS011;19221;42.656;21.156;2023-04-25T08:10:16;9.50;;;3.22;;
32198;SDS011;19221;42.656;21.156;2023-04-25T08:12:42;12.85;;;3.35;;
32198;SDS011;19221;42.656;21.156;2023-04-25T08:15:08;10.43;;;3.67;;
32198;SDS011;19221;42.656;21.156;2023-04-25T08:17:34;10.10;;;3.03;;
32198;SDS011;19221;42.656;21.156;2023-04-25T08:20:00;17.35;;;3.95;;
32198;SDS011;19221;42.656;21.156;2023-04-25T08:22:25;12.77;;;4.03;;
32198;SDS011;19221;42.656;21.156;2023-04-25T08:24:51;12.02;;;3.95;;
32198;SDS011;19221;42.656;21.156;2023-04-25T08:27:17;9.43;;;2.92;;
32198;SDS011;19221;42.656;21.156;2023-04-25T08:29:43;25.27;;;4.80;;
32198;SDS011;19221;42.656;21.156;2023-04-25T08:32:09;12.90;;;3.88;;
32198;SDS011;19221;42.656;21.156;2023-04-25T08:34:34;13.57;;;3.83;;
32198;SDS011;19221;42.656;21.156;2023-04-25T08:37:02;16.15;;;4.95;;
32198;SDS011;19221;42.656;21.156;2023-04-25T08:39:29;8.25;;;3.88;;
32198;SDS011;19221;42.656;21.156;2023-04-25T08:41:55;14.43;;;5.25;;
32198;SDS011;19221;42.656;21.156;2023-04-25T08:44:21;13.00;;;3.63;;
32198;SDS011;19221;42.656;21.156;2023-04-25T08:46:47;13.50;;;4.40;;
32198;SDS011;19221;42.656;21.156;2023-04-25T08:49:15;20.20;;;4.40;;
32198;SDS011;19221;42.656;21.156;2023-04-25T08:51:45;11.68;;;3.90;;
32198;SDS011;19221;42.656;21.156;2023-04-25T08:54:12;11.35;;;4.10;;
32198;SDS011;19221;42.656;21.156;2023-04-25T08:56:38;18.80;;;5.60;;
32198;SDS011;19221;42.656;21.156;2023-04-25T08:59:05;12.10;;;3.88;;
32198;SDS011;19221;42.656;21.156;2023-04-25T09:01:34;14.73;;;4.80;;
32198;SDS011;19221;42.656;21.156;2023-04-25T09:04:00;20.23;;;5.25;;
32198;SDS011;19221;42.656;21.156;2023-04-25T09:06:26;12.80;;;4.47;;
32198;SDS011;19221;42.656;21.156;2023-04-25T09:08:53;20.42;;;4.65;;
32198;SDS011;19221;42.656;21.156;2023-04-25T09:11:19;21.40;;;5.07;;
32198;SDS011;19221;42.656;21.156;2023-04-25T09:13:44;22.23;;;5.70;;
32198;SDS011;19221;42.656;21.156;2023-04-25T09:16:10;17.02;;;4.97;;
32198;SDS011;19221;42.656;21.156;2023-04-25T09:18:36;26.38;;;5.22;;
32198;SDS011;19221;42.656;21.156;2023-04-25T09:21:09;21.20;;;5.50;;
32198;SDS011;19221;42.656;21.156;2023-04-25T09:23:44;31.00;;;10.75;;
32198;SDS011;19221;42.656;21.156;2023-04-25T09:26:10;42.22;;;7.50;;
32198;SDS011;19221;42.656;21.156;2023-04-25T09:28:39;32.80;;;7.78;;
32198;SDS011;19221;42.656;21.156;2023-04-25T09:31:04;34.53;;;8.43;;
32198;SDS011;19221;42.656;21.156;2023-04-25T09:33:31;24.98;;;7.53;;
32198;SDS011;19221;42.656;21.156;2023-04-25T09:36:04;25.73;;;7.93;;
32198;SDS011;19221;42.656;21.156;2023-04-25T09:38:31;22.77;;;6.65;;
32198;SDS011;19221;42.656;21.156;2023-04-25T09:40:56;22.88;;;6.28;;
32198;SDS011;19221;42.656;21.156;2023-04-25T09:43:23;23.92;;;6.75;;
32198;SDS011;19221;42.656;21.156;2023-04-25T09:45:49;19.35;;;4.80;;
32198;SDS011;19221;42.656;21.156;2023-04-25T09:48:17;22.45;;;4.45;;
32198;SDS011;19221;42.656;21.156;2023-04-25T09:50:44;17.27;;;4.50;;
32198;SDS011;19221;42.656;21.156;2023-04-25T09:53:09;16.27;;;4.78;;
32198;SDS011;19221;42.656;21.156;2023-04-25T09:55:36;14.32;;;3.80;;
32198;SDS011;19221;42.656;21.156;2023-04-25T09:58:05;12.20;;;3.33;;
32198;SDS011;19221;42.656;21.156;2023-04-25T10:00:35;10.80;;;4.03;;
32198;SDS011;19221;42.656;21.156;2023-04-25T10:03:01;9.50;;;3.20;;
32198;SDS011;19221;42.656;21.156;2023-04-25T10:05:29;7.78;;;3.10;;
32198;SDS011;19221;42.656;21.156;2023-04-25T10:07:57;9.95;;;2.83;;
32198;SDS011;19221;42.656;21.156;2023-04-25T10:10:24;9.70;;;3.00;;
32198;SDS011;19221;42.656;21.156;2023-04-25T10:12:53;14.70;;;4.50;;
32198;SDS011;19221;42.656;21.156;2023-04-25T10:15:19;10.35;;;3.83;;
32198;SDS011;19221;42.656;21.156;2023-04-25T10:17:44;11.82;;;3.20;;
32198;SDS011;19221;42.656;21.156;2023-04-25T10:20:10;9.43;;;2.83;;
32198;SDS011;19221;42.656;21.156;2023-04-25T10:22:37;6.45;;;2.88;;
32198;SDS011;19221;42.656;21.156;2023-04-25T12:56:11;11.77;;;5.40;;
32198;SDS011;19221;42.656;21.156;2023-04-25T12:58:36;8.18;;;4.10;;
32198;SDS011;19221;42.656;21.156;2023-04-25T13:01:02;11.98;;;5.82;;
32198;SDS011;19221;42.656;21.156;2023-04-25T13:03:28;13.68;;;5.55;;
32198;SDS011;19221;42.656;21.156;2023-04-25T13:05:53;8.82;;;5.43;;
32198;SDS011;19221;42.656;21.156;2023-04-25T13:08:19;10.00;;;6.20;;
32198;SDS011;19221;42.656;21.156;2023-04-25T13:10:45;9.43;;;5.63;;
32198;SDS011;19221;42.656;21.156;2023-04-25T13:13:10;9.40;;;4.70;;
32198;SDS011;19221;42.656;21.156;2023-04-25T13:15:36;8.27;;;4.93;;
32198;SDS011;19221;42.656;21.156;2023-04-25T13:18:03;8.07;;;5.53;;
32198;SDS011;19221;42.656;21.156;2023-04-25T13:20:29;10.50;;;5.82;;
32198;SDS011;19221;42.656;21.156;2023-04-25T13:22:55;11.15;;;5.65;;
32198;SDS011;19221;42.656;21.156;2023-04-25T13:25:20;11.85;;;7.03;;
32198;SDS011;19221;42.656;21.156;2023-04-25T13:27:47;13.15;;;7.95;;
32198;SDS011;19221;42.656;21.156;2023-04-25T13:30:12;14.38;;;8.15;;
32198;SDS011;19221;42.656;21.156;2023-04-25T13:32:38;15.50;;;9.02;;
32198;SDS011;19221;42.656;21.156;2023-04-25T13:35:04;12.38;;;8.10;;
32198;SDS011;19221;42.656;21.156;2023-04-25T13:37:30;13.43;;;7.88;;
32198;SDS011;19221;42.656;21.156;2023-04-25T13:40:00;29.02;;;16.08;;
32198;SDS011;19221;42.656;21.156;2023-04-25T13:42:27;14.55;;;9.90;;
32198;SDS011;19221;42.656;21.156;2023-04-25T13:44:53;15.15;;;7.57;;
32198;SDS011;19221;42.656;21.156;2023-04-25T13:47:19;10.90;;;6.40;;
32198;SDS011;19221;42.656;21.156;2023-04-25T13:49:45;7.68;;;4.80;;
32198;SDS011;19221;42.656;21.156;2023-04-25T13:52:10;6.38;;;3.85;;
32198;SDS011;19221;42.656;21.156;2023-04-25T13:54:36;5.68;;;3.83;;
32198;SDS011;19221;42.656;21.156;2023-04-25T13:57:01;7.38;;;4.00;;
32198;SDS011;19221;42.656;21.156;2023-04-25T13:59:27;9.73;;;5.72;;
32198;SDS011;19221;42.656;21.156;2023-04-25T14:01:53;8.20;;;5.40;;
32198;SDS011;19221;42.656;21.156;2023-04-25T14:04:18;11.65;;;6.00;;
32198;SDS011;19221;42.656;21.156;2023-04-25T14:06:44;9.18;;;5.70;;
32198;SDS011;19221;42.656;21.156;2023-04-25T14:09:11;10.63;;;5.57;;
32198;SDS011;19221;42.656;21.156;2023-04-25T14:11:38;10.02;;;5.88;;
32198;SDS011;19221;42.656;21.156;2023-04-25T14:14:04;10.45;;;4.30;;
32198;SDS011;19221;42.656;21.156;2023-04-25T14:16:30;12.98;;;4.78;;
32198;SDS011;19221;42.656;21.156;2023-04-25T14:18:59;16.25;;;6.57;;
32198;SDS011;19221;42.656;21.156;2023-04-25T14:21:26;13.15;;;5.82;;
32198;SDS011;19221;42.656;21.156;2023-04-25T14:23:52;9.48;;;5.88;;
32198;SDS011;19221;42.656;21.156;2023-04-25T14:26:18;9.68;;;6.45;;
32198;SDS011;19221;42.656;21.156;2023-04-25T14:28:43;13.27;;;7.13;;
32198;SDS011;19221;42.656;21.156;2023-04-25T14:31:09;9.23;;;6.03;;
32198;SDS011;19221;42.656;21.156;2023-04-25T14:33:35;13.23;;;6.95;;
32198;SDS011;19221;42.656;21.156;2023-04-25T14:36:02;8.93;;;6.20;;
32198;SDS011;19221;42.656;21.156;2023-04-25T14:38:28;9.02;;;5.97;;
32198;SDS011;19221;42.656;21.156;2023-04-25T14:40:54;10.02;;;6.03;;
32198;SDS011;19221;42.656;21.156;2023-04-25T14:43:20;9.35;;;5.03;;
32198;SDS011;19221;42.656;21.156;2023-04-25T14:45:45;8.50;;;5.22;;
32198;SDS011;19221;42.656;21.156;2023-04-25T14:48:11;9.07;;;5.57;;
32198;SDS011;19221;42.656;21.156;2023-04-25T14:50:37;9.80;;;6.68;;
32198;SDS011;19221;42.656;21.156;2023-04-25T14:53:02;9.93;;;4.80;;
32198;SDS011;19221;42.656;21.156;2023-04-25T14:55:28;9.40;;;4.10;;
32198;SDS011;19221;42.656;21.156;2023-04-25T14:57:54;6.57;;;3.88;;
32198;SDS011;19221;42.656;21.156;2023-04-25T15:00:20;5.80;;;4.10;;
32198;SDS011;19221;42.656;21.156;2023-04-25T15:02:47;7.25;;;4.47;;
32198;SDS011;19221;42.656;21.156;2023-04-25T15:05:13;7.70;;;4.50;;
32198;SDS011;19221;42.656;21.156;2023-04-25T15:07:39;6.40;;;4.07;;
32198;SDS011;19221;42.656;21.156;2023-04-25T15:10:06;9.15;;;4.65;;
32198;SDS011;19221;42.656;21.156;2023-04-25T15:12:32;6.65;;;4.85;;
32198;SDS011;19221;42.656;21.156;2023-04-25T15:14:58;8.68;;;5.70;;
32198;SDS011;19221;42.656;21.156;2023-04-25T15:17:23;7.75;;;4.80;;
32198;SDS011;19221;42.656;21.156;2023-04-25T15:19:49;6.32;;;4.22;;
32198;SDS011;19221;42.656;21.156;2023-04-25T15:22:15;7.57;;;4.25;;
32198;SDS011;19221;42.656;21.156;2023-04-25T15:24:41;7.47;;;3.85;;
32198;SDS011;19221;42.656;21.156;2023-04-25T15:27:06;8.75;;;4.53;;
32198;SDS011;19221;42.656;21.156;2023-04-25T15:29:32;8.98;;;3.92;;
32198;SDS011;19221;42.656;21.156;2023-04-25T15:31:58;6.88;;;4.25;;
32198;SDS011;19221;42.656;21.156;2023-04-25T15:34:24;8.35;;;4.15;;
32198;SDS011;19221;42.656;21.156;2023-04-25T15:36:49;17.27;;;5.20;;
32198;SDS011;19221;42.656;21.156;2023-04-25T15:39:15;23.08;;;7.30;;
32198;SDS011;19221;42.656;21.156;2023-04-25T15:41:42;22.70;;;5.35;;
32198;SDS011;19221;42.656;21.156;2023-04-25T15:44:07;16.65;;;5.43;;
32198;SDS011;19221;42.656;21.156;2023-04-25T15:46:35;21.63;;;4.53;;
32198;SDS011;19221;42.656;21.156;2023-04-25T15:49:00;19.05;;;5.53;;
32198;SDS011;19221;42.656;21.156;2023-04-25T15:51:27;17.60;;;4.97;;
32198;SDS011;19221;42.656;21.156;2023-04-25T15:53:52;14.48;;;5.93;;
32198;SDS011;19221;42.656;21.156;2023-04-25T15:56:18;21.23;;;5.10;;
32198;SDS011;19221;42.656;21.156;2023-04-25T15:58:44;11.95;;;3.88;;
32198;SDS011;19221;42.656;21.156;2023-04-25T16:01:10;12.40;;;4.10;;
32198;SDS011;19221;42.656;21.156;2023-04-25T16:03:36;21.15;;;4.88;;
32198;SDS011;19221;42.656;21.156;2023-04-25T16:06:02;16.00;;;5.78;;
32198;SDS011;19221;42.656;21.156;2023-04-25T16:08:27;16.55;;;5.95;;
32198;SDS011;19221;42.656;21.156;2023-04-25T16:10:54;13.60;;;5.75;;
32198;SDS011;19221;42.656;21.156;2023-04-25T16:13:20;7.80;;;4.15;;
32198;SDS011;19221;42.656;21.156;2023-04-25T16:15:46;18.83;;;10.45;;
32198;SDS011;19221;42.656;21.156;2023-04-25T16:18:11;15.93;;;8.98;;
32198;SDS011;19221;42.656;21.156;2023-04-25T16:20:37;15.23;;;9.55;;
32198;SDS011;19221;42.656;21.156;2023-04-25T16:23:03;11.43;;;8.98;;
32198;SDS011;19221;42.656;21.156;2023-04-25T16:25:28;12.70;;;8.40;;
32198;SDS011;19221;42.656;21.156;2023-04-25T16:27:54;14.85;;;9.50;;
32198;SDS011;19221;42.656;21.156;2023-04-25T16:30:19;17.60;;;10.73;;
32198;SDS011;19221;42.656;21.156;2023-04-25T16:32:45;12.18;;;8.65;;
32198;SDS011;19221;42.656;21.156;2023-04-25T16:35:11;14.02;;;8.63;;
32198;SDS011;19221;42.656;21.156;2023-04-25T16:37:36;15.43;;;10.70;;
32198;SDS011;19221;42.656;21.156;2023-04-25T16:40:02;16.75;;;7.95;;
32198;SDS011;19221;42.656;21.156;2023-04-25T16:42:28;10.32;;;6.10;;
32198;SDS011;19221;42.656;21.156;2023-04-25T16:44:53;14.18;;;7.63;;
32198;SDS011;19221;42.656;21.156;2023-04-25T16:47:19;19.13;;;7.72;;
32198;SDS011;19221;42.656;21.156;2023-04-25T16:49:45;8.15;;;5.72;;
32198;SDS011;19221;42.656;21.156;2023-04-25T16:52:11;15.07;;;8.10;;
32198;SDS011;19221;42.656;21.156;2023-04-25T16:54:36;16.88;;;9.43;;